createdAt,value
2017-10-11T00:02:12.940Z,11.80
2017-10-11T00:04:43.008Z,11.80
2017-10-11T00:07:10.600Z,11.80
2017-10-11T00:09:38.187Z,11.80
2017-10-11T00:12:06.544Z,11.80
2017-10-11T00:14:34.908Z,11.80
2017-10-11T00:17:03.245Z,11.90
2017-10-11T00:19:30.841Z,11.90
2017-10-11T00:22:02.536Z,11.80
2017-10-11T00:24:30.897Z,11.90
2017-10-11T00:26:58.556Z,11.90
2017-10-11T00:29:26.624Z,11.90
2017-10-11T00:31:54.197Z,11.90
2017-10-11T00:34:22.532Z,12.00
2017-10-11T00:36:50.237Z,12.00
2017-10-11T00:39:17.809Z,12.00
2017-10-11T00:41:46.276Z,12.10
2017-10-11T00:44:13.839Z,12.10
2017-10-11T00:46:42.820Z,12.20
2017-10-11T00:49:10.388Z,12.20
2017-10-11T00:51:39.898Z,12.10
2017-10-11T00:54:07.467Z,12.10
2017-10-11T00:56:35.806Z,12.10
2017-10-11T00:59:03.500Z,12.10
2017-10-11T01:01:31.068Z,12.10
2017-10-11T01:03:59.432Z,12.10
2017-10-11T01:06:27.014Z,12.10
2017-10-11T01:08:55.383Z,12.10
2017-10-11T01:11:23.019Z,12.10
2017-10-11T01:13:50.787Z,12.20
2017-10-11T01:16:18.630Z,12.20
2017-10-11T01:18:46.395Z,12.20
2017-10-11T01:21:14.196Z,12.20
2017-10-11T01:23:43.307Z,12.20
2017-10-11T01:26:10.933Z,12.20
2017-10-11T01:28:38.523Z,12.20
2017-10-11T01:31:06.880Z,12.20
2017-10-11T01:33:34.449Z,12.20
2017-10-11T01:36:02.056Z,12.20
2017-10-11T01:38:29.689Z,12.20
2017-10-11T01:40:57.276Z,12.20
2017-10-11T01:43:24.844Z,12.20
2017-10-11T01:45:52.436Z,12.20
2017-10-11T01:48:20.000Z,12.20
2017-10-11T01:50:47.596Z,12.10
2017-10-11T01:53:15.165Z,12.10
2017-10-11T01:55:44.080Z,12.00
2017-10-11T01:58:11.655Z,12.00
2017-10-11T02:00:39.244Z,12.00
2017-10-11T02:03:06.809Z,12.00
2017-10-11T02:05:34.399Z,12.00
2017-10-11T02:08:02.733Z,12.10
2017-10-11T02:10:30.344Z,12.10
2017-10-11T02:12:58.672Z,12.10
2017-10-11T02:15:26.257Z,12.10
2017-10-11T02:17:53.868Z,12.20
2017-10-11T02:20:21.428Z,12.20
2017-10-11T02:22:49.016Z,12.20
2017-10-11T02:25:16.585Z,12.20
2017-10-11T02:27:44.380Z,12.20
2017-10-11T02:30:12.714Z,12.20
2017-10-11T02:32:42.733Z,12.20
2017-10-11T02:35:10.697Z,12.20
2017-10-11T02:37:38.261Z,12.20
2017-10-11T02:40:05.868Z,12.20
2017-10-11T02:42:33.515Z,12.20
2017-10-11T02:45:01.100Z,12.20
2017-10-11T02:47:29.436Z,12.10
2017-10-11T02:49:57.124Z,12.10
2017-10-11T02:52:25.461Z,12.20
2017-10-11T02:54:56.727Z,12.10
2017-10-11T02:57:24.824Z,12.20
2017-10-11T02:59:52.412Z,12.10
2017-10-11T03:02:19.992Z,12.20
2017-10-11T03:04:47.564Z,12.10
2017-10-11T03:07:15.169Z,12.10
2017-10-11T03:09:44.772Z,12.20
2017-10-11T03:12:12.333Z,12.20
2017-10-11T03:14:39.905Z,12.20
2017-10-11T03:17:08.268Z,12.20
2017-10-11T03:19:35.840Z,12.10
2017-10-11T03:22:04.288Z,12.20
2017-10-11T03:24:31.900Z,12.20
2017-10-11T03:27:00.247Z,12.10
2017-10-11T03:29:27.915Z,12.10
2017-10-11T03:31:55.529Z,12.10
2017-10-11T03:34:23.981Z,12.10
2017-10-11T03:36:51.717Z,12.10
2017-10-11T03:39:19.275Z,12.10
2017-10-11T03:41:46.949Z,12.10
2017-10-11T03:44:14.581Z,12.10
2017-10-11T03:46:43.073Z,12.10
2017-10-11T03:49:10.661Z,12.10
2017-10-11T03:51:38.227Z,12.10
2017-10-11T03:54:07.332Z,12.10
2017-10-11T03:56:35.696Z,12.10
2017-10-11T03:59:03.294Z,12.10
2017-10-11T04:01:30.863Z,12.10
2017-10-11T04:03:58.491Z,12.10
2017-10-11T04:06:26.829Z,12.10
2017-10-11T04:08:54.401Z,12.10
2017-10-11T04:11:23.505Z,12.20
2017-10-11T04:13:51.176Z,12.10
2017-10-11T04:16:18.840Z,12.20
2017-10-11T04:18:47.172Z,12.20
2017-10-11T04:21:14.787Z,12.20
2017-10-11T04:23:44.756Z,12.30
2017-10-11T04:26:12.325Z,12.30
2017-10-11T04:28:39.916Z,12.30
2017-10-11T04:31:07.484Z,12.30
2017-10-11T04:33:35.072Z,12.30
2017-10-11T04:36:02.637Z,12.30
2017-10-11T04:38:30.228Z,12.30
2017-10-11T04:40:57.796Z,12.20
2017-10-11T04:43:25.388Z,12.20
2017-10-11T04:45:53.573Z,12.30
2017-10-11T04:48:22.036Z,12.30
2017-10-11T04:50:49.609Z,12.30
2017-10-11T04:53:17.972Z,12.30
2017-10-11T04:55:45.543Z,12.30
2017-10-11T04:58:13.917Z,12.30
2017-10-11T05:00:42.884Z,12.30
2017-10-11T05:03:10.484Z,12.20
2017-10-11T05:05:38.817Z,12.20
2017-10-11T05:08:06.420Z,12.20
2017-10-11T05:10:34.757Z,12.20
2017-10-11T05:13:02.352Z,12.20
2017-10-11T05:15:30.016Z,12.20
2017-10-11T05:17:57.580Z,12.20
2017-10-11T05:20:25.942Z,12.30
2017-10-11T05:22:53.512Z,12.20
2017-10-11T05:25:21.104Z,12.30
2017-10-11T05:27:49.440Z,12.30
2017-10-11T05:30:17.029Z,12.20
2017-10-11T05:32:45.364Z,12.30
2017-10-11T05:35:12.984Z,12.30
2017-10-11T05:37:41.812Z,12.30
2017-10-11T05:40:09.389Z,12.30
2017-10-11T05:42:36.980Z,12.30
2017-10-11T05:45:05.320Z,12.30
2017-10-11T05:47:32.910Z,12.30
2017-10-11T05:50:01.253Z,12.30
2017-10-11T05:52:28.842Z,12.30
2017-10-11T05:54:56.418Z,12.30
2017-10-11T05:57:24.752Z,12.30
2017-10-11T05:59:52.345Z,12.30
2017-10-11T06:02:20.004Z,12.30
2017-10-11T06:04:47.603Z,12.30
2017-10-11T06:07:15.176Z,12.30
2017-10-11T06:09:44.260Z,12.30
2017-10-11T06:12:11.827Z,12.30
2017-10-11T06:14:39.416Z,12.30
2017-10-11T06:17:06.985Z,12.30
2017-10-11T06:19:34.548Z,12.30
2017-10-11T06:22:02.143Z,12.30
2017-10-11T06:24:30.604Z,12.20
2017-10-11T06:26:58.198Z,12.20
2017-10-11T06:29:26.554Z,12.20
2017-10-11T06:31:54.901Z,12.10
2017-10-11T06:34:22.492Z,12.10
2017-10-11T06:36:50.077Z,12.10
2017-10-11T06:39:18.465Z,12.10
2017-10-11T06:41:46.028Z,12.10
2017-10-11T06:44:13.592Z,12.20
2017-10-11T06:46:43.681Z,12.20
2017-10-11T06:49:12.016Z,12.30
2017-10-11T06:51:39.605Z,12.30
2017-10-11T06:54:07.268Z,12.30
2017-10-11T06:56:34.863Z,12.30
2017-10-11T06:59:03.200Z,12.60
2017-10-11T07:01:30.789Z,12.60
2017-10-11T07:03:59.151Z,12.60
2017-10-11T07:06:26.740Z,12.60
2017-10-11T07:08:54.312Z,12.60
2017-10-11T07:11:21.905Z,12.70
2017-10-11T07:13:49.473Z,12.90
2017-10-11T07:16:17.272Z,13.60
2017-10-11T07:18:45.631Z,15.50
2017-10-11T07:21:13.199Z,15.50
2017-10-11T07:23:42.089Z,14.80
2017-10-11T07:26:09.651Z,14.70
2017-10-11T07:28:37.240Z,14.20
2017-10-11T07:31:05.600Z,13.90
2017-10-11T07:33:33.959Z,14.90
2017-10-11T07:36:01.522Z,14.80
2017-10-11T07:38:29.196Z,16.00
2017-10-11T07:40:56.761Z,16.60
2017-10-11T07:43:24.418Z,17.30
2017-10-11T07:45:52.005Z,18.00
2017-10-11T07:48:20.341Z,19.00
2017-10-11T07:50:47.924Z,18.90
2017-10-11T07:53:15.490Z,19.60
2017-10-11T07:55:45.808Z,20.20
2017-10-11T07:58:13.376Z,20.20
2017-10-11T08:00:43.072Z,20.70
2017-10-11T08:03:10.656Z,20.60
2017-10-11T08:05:39.017Z,19.20
2017-10-11T08:08:07.356Z,18.40
2017-10-11T08:10:35.264Z,18.40
2017-10-11T08:13:02.942Z,18.10
2017-10-11T08:15:30.516Z,17.30
2017-10-11T08:17:58.104Z,16.40
2017-10-11T08:20:25.675Z,15.80
2017-10-11T08:22:53.272Z,15.50
2017-10-11T08:25:20.832Z,15.30
2017-10-11T08:27:48.440Z,15.10
2017-10-11T08:30:16.000Z,14.90
2017-10-11T08:32:43.824Z,14.80
2017-10-11T08:35:15.227Z,14.80
2017-10-11T08:37:43.715Z,14.80
2017-10-11T08:40:11.300Z,14.80
2017-10-11T08:42:39.683Z,14.60
2017-10-11T08:45:07.281Z,14.60
2017-10-11T08:47:35.612Z,14.40
2017-10-11T08:50:03.221Z,14.40
2017-10-11T08:52:30.784Z,14.30
2017-10-11T08:54:58.353Z,14.10
2017-10-11T08:57:25.968Z,14.10
2017-10-11T08:59:53.540Z,14.10
2017-10-11T09:02:21.132Z,14.10
2017-10-11T09:04:48.700Z,14.10
2017-10-11T09:07:16.321Z,14.10
2017-10-11T09:09:44.803Z,14.20
2017-10-11T09:12:12.565Z,14.20
2017-10-11T09:14:40.140Z,14.30
2017-10-11T09:17:08.488Z,14.90
2017-10-11T09:19:36.081Z,14.90
2017-10-11T09:22:04.421Z,15.60
2017-10-11T09:24:32.008Z,15.60
2017-10-11T09:26:59.583Z,16.00
2017-10-11T09:29:27.948Z,16.40
2017-10-11T09:31:55.520Z,16.40
2017-10-11T09:34:24.168Z,16.40
2017-10-11T09:36:51.737Z,16.30
2017-10-11T09:39:19.324Z,15.80
2017-10-11T09:41:47.651Z,15.70
2017-10-11T09:44:15.231Z,15.70
2017-10-11T09:46:43.949Z,15.60
2017-10-11T09:49:12.330Z,15.80
2017-10-11T09:51:41.596Z,15.70
2017-10-11T09:54:09.184Z,15.70
2017-10-11T09:56:36.743Z,15.70
2017-10-11T09:59:04.357Z,16.00
2017-10-11T10:01:31.916Z,17.20
2017-10-11T10:03:59.477Z,18.00
2017-10-11T10:06:27.284Z,17.50
2017-10-11T10:08:54.848Z,17.10
2017-10-11T10:11:22.412Z,17.00
2017-10-11T10:13:50.780Z,17.40
2017-10-11T10:16:18.344Z,17.40
2017-10-11T10:18:46.296Z,18.50
2017-10-11T10:21:13.876Z,19.50
2017-10-11T10:23:42.884Z,20.50
2017-10-11T10:26:11.235Z,18.90
2017-10-11T10:28:38.831Z,18.80
2017-10-11T10:31:07.164Z,17.50
2017-10-11T10:33:34.783Z,17.40
2017-10-11T10:36:03.133Z,17.00
2017-10-11T10:38:30.721Z,17.00
2017-10-11T10:40:59.061Z,16.40
2017-10-11T10:43:26.733Z,16.30
2017-10-11T10:45:54.299Z,16.20
2017-10-11T10:48:22.630Z,16.00
2017-10-11T10:50:50.235Z,16.00
2017-10-11T10:53:17.797Z,15.70
2017-10-11T10:55:45.392Z,15.50
2017-10-11T10:58:12.961Z,15.50
2017-10-11T11:00:42.829Z,15.40
2017-10-11T11:03:11.169Z,15.40
2017-10-11T11:05:38.772Z,15.40
2017-10-11T11:08:06.349Z,15.40
2017-10-11T11:10:35.016Z,15.10
2017-10-11T11:13:03.399Z,15.50
2017-10-11T11:15:30.977Z,15.50
2017-10-11T11:17:59.357Z,18.20
2017-10-11T11:20:27.716Z,19.90
2017-10-11T11:22:55.279Z,19.80
2017-10-11T11:25:22.876Z,21.40
2017-10-11T11:27:50.505Z,22.20
2017-10-11T11:30:18.088Z,21.70
2017-10-11T11:32:46.604Z,19.40
2017-10-11T11:35:14.562Z,19.30
2017-10-11T11:37:43.696Z,18.10
2017-10-11T11:40:11.289Z,18.10
2017-10-11T11:42:39.649Z,20.10
2017-10-11T11:45:07.248Z,20.10
2017-10-11T11:47:34.820Z,20.30
2017-10-11T11:50:02.404Z,20.30
2017-10-11T11:52:29.991Z,18.80
2017-10-11T11:54:57.761Z,17.80
2017-10-11T11:57:25.345Z,17.00
2017-10-11T11:59:52.929Z,16.60
2017-10-11T12:02:20.521Z,16.10
2017-10-11T12:04:48.083Z,16.00
2017-10-11T12:07:15.681Z,15.80
2017-10-11T12:09:44.641Z,15.90
2017-10-11T12:14:46.286Z,16.00
2017-10-11T12:17:13.868Z,15.70
2017-10-11T12:19:43.101Z,15.70
2017-10-11T12:22:11.456Z,15.80
2017-10-11T12:24:39.024Z,15.80
2017-10-11T12:27:06.649Z,15.70
2017-10-11T12:29:34.212Z,15.60
2017-10-11T12:32:01.777Z,15.50
2017-10-11T12:34:29.360Z,15.50
2017-10-11T12:36:56.937Z,15.50
2017-10-11T12:39:24.592Z,15.40
2017-10-11T12:41:53.672Z,15.40
2017-10-11T12:44:21.265Z,15.40
2017-10-11T12:46:49.600Z,15.20
2017-10-11T12:49:17.192Z,15.10
2017-10-11T12:51:44.760Z,15.10
2017-10-11T12:54:12.375Z,15.00
2017-10-11T12:56:39.950Z,15.00
2017-10-11T12:59:07.545Z,15.00
2017-10-11T13:01:35.116Z,15.00
2017-10-11T13:04:03.518Z,15.40
2017-10-11T13:06:31.140Z,15.40
2017-10-11T13:08:58.801Z,15.50
2017-10-11T13:11:26.367Z,15.40
2017-10-11T13:13:53.946Z,15.20
2017-10-11T13:16:21.583Z,15.10
2017-10-11T13:18:49.157Z,15.10
2017-10-11T13:21:17.516Z,15.20
2017-10-11T13:23:45.191Z,15.20
2017-10-11T13:26:12.896Z,15.30
2017-10-11T13:28:42.404Z,15.30
2017-10-11T13:31:09.964Z,15.40
2017-10-11T13:33:37.576Z,15.30
2017-10-11T13:36:05.164Z,15.20
2017-10-11T13:38:33.520Z,15.00
2017-10-11T13:41:01.181Z,15.00
2017-10-11T13:43:28.776Z,14.90
2017-10-11T13:45:56.405Z,14.80
2017-10-11T13:48:23.987Z,14.80
2017-10-11T13:50:52.346Z,14.70
2017-10-11T13:53:19.964Z,14.70
2017-10-11T13:55:47.764Z,14.70
2017-10-11T13:58:15.329Z,14.80
2017-10-11T14:00:43.843Z,14.80
2017-10-11T14:03:12.172Z,14.80
2017-10-11T14:05:39.757Z,14.80
2017-10-11T14:08:07.320Z,14.80
2017-10-11T14:10:34.922Z,14.80
2017-10-11T14:13:02.496Z,14.70
2017-10-11T14:15:30.087Z,14.60
2017-10-11T14:17:57.719Z,14.60
2017-10-11T14:20:25.348Z,14.60
2017-10-11T14:22:53.684Z,14.50
2017-10-11T14:25:21.322Z,14.50
2017-10-11T14:27:48.985Z,14.50
2017-10-11T14:30:16.596Z,14.40
2017-10-11T14:32:44.164Z,14.40
2017-10-11T14:35:12.496Z,14.40
2017-10-11T14:37:41.008Z,14.30
2017-10-11T14:40:08.600Z,14.30
2017-10-11T14:42:36.168Z,14.30
2017-10-11T14:45:03.796Z,14.30
2017-10-11T14:47:31.363Z,14.20
2017-10-11T14:49:59.692Z,14.20
2017-10-11T14:52:27.292Z,14.20
2017-10-11T14:54:54.863Z,14.20
2017-10-11T14:57:23.236Z,14.20
2017-10-11T14:59:51.594Z,14.10
2017-10-11T15:02:19.161Z,14.10
2017-10-11T15:04:46.752Z,14.10
2017-10-11T15:07:15.084Z,14.10
2017-10-11T15:09:44.057Z,14.10
2017-10-11T15:12:11.660Z,14.10
2017-10-11T15:14:39.249Z,14.20
2017-10-11T15:17:07.580Z,14.20
2017-10-11T15:19:35.175Z,14.20
2017-10-11T15:22:02.740Z,14.20
2017-10-11T15:24:31.068Z,14.10
2017-10-11T15:26:58.664Z,14.10
2017-10-11T15:29:26.228Z,14.00
2017-10-11T15:31:53.949Z,14.00
2017-10-11T15:34:21.525Z,14.00
2017-10-11T15:36:49.243Z,14.00
2017-10-11T15:39:17.567Z,13.90
2017-10-11T15:41:45.133Z,13.90
2017-10-11T15:44:12.724Z,13.90
2017-10-11T15:46:41.209Z,13.90
2017-10-11T15:49:09.568Z,13.90
2017-10-11T15:51:37.892Z,13.90
2017-10-11T15:54:05.480Z,13.80
2017-10-11T15:56:33.076Z,13.90
2017-10-11T15:59:00.669Z,13.80
2017-10-11T16:01:28.241Z,13.80
2017-10-11T16:03:55.837Z,13.80
2017-10-11T16:06:23.400Z,13.80
2017-10-11T16:08:51.289Z,13.80
2017-10-11T16:11:18.849Z,13.80
2017-10-11T16:13:46.420Z,13.80
2017-10-11T16:16:14.781Z,13.70
2017-10-11T16:18:43.884Z,13.70
2017-10-11T16:21:11.472Z,13.70
2017-10-11T16:23:39.800Z,13.60
2017-10-11T16:26:07.385Z,13.60
2017-10-11T16:28:34.953Z,13.50
2017-10-11T16:31:02.706Z,13.50
2017-10-11T16:33:30.272Z,13.50
2017-10-11T16:35:57.848Z,13.50
2017-10-11T16:38:26.545Z,13.40
2017-10-11T16:40:54.877Z,13.40
2017-10-11T16:43:22.465Z,13.40
2017-10-11T16:45:50.821Z,13.40
2017-10-11T16:48:18.807Z,13.40
2017-10-11T16:50:46.375Z,13.40
2017-10-11T16:53:13.935Z,13.40
2017-10-11T16:55:42.956Z,13.30
2017-10-11T16:58:10.524Z,13.30
2017-10-11T17:00:38.108Z,13.30
2017-10-11T17:03:05.683Z,13.30
2017-10-11T17:05:33.275Z,13.30
2017-10-11T17:08:01.703Z,13.30
2017-10-11T17:10:29.288Z,13.30
2017-10-11T17:12:56.852Z,13.30
2017-10-11T17:15:24.435Z,13.20
2017-10-11T17:17:51.999Z,13.20
2017-10-11T17:20:20.352Z,13.20
2017-10-11T17:22:47.916Z,13.20
2017-10-11T17:25:15.692Z,13.20
2017-10-11T17:27:44.949Z,13.20
2017-10-11T17:30:12.558Z,13.10
2017-10-11T17:32:40.274Z,13.20
2017-10-11T17:35:07.839Z,13.10
2017-10-11T17:37:35.405Z,13.10
2017-10-11T17:40:02.992Z,13.10
2017-10-11T17:42:30.996Z,13.10
2017-10-11T17:44:59.348Z,13.10
2017-10-11T17:47:26.907Z,13.00
2017-10-11T17:49:54.500Z,13.10
2017-10-11T17:52:22.844Z,13.10
2017-10-11T17:54:51.940Z,13.00
2017-10-11T17:57:19.502Z,13.00
2017-10-11T17:59:47.101Z,13.10
2017-10-11T18:02:14.772Z,13.10
2017-10-11T18:04:43.449Z,13.10
2017-10-11T18:07:11.076Z,13.10
2017-10-11T18:09:38.772Z,13.00
2017-10-11T18:12:07.100Z,13.00
2017-10-11T18:14:34.677Z,13.00
2017-10-11T18:17:02.268Z,13.00
2017-10-11T18:19:30.604Z,13.00
2017-10-11T18:21:58.188Z,13.00
2017-10-11T18:24:25.841Z,13.00
2017-10-11T18:26:54.228Z,13.00
2017-10-11T18:29:21.792Z,13.00
2017-10-11T18:31:49.440Z,13.00
2017-10-11T18:34:17.029Z,13.00
2017-10-11T18:36:45.368Z,13.00
2017-10-11T18:39:12.962Z,13.00
2017-10-11T18:41:42.060Z,13.00
2017-10-11T18:44:10.393Z,13.00
2017-10-11T18:46:37.989Z,13.00
2017-10-11T18:49:05.596Z,13.00
2017-10-11T18:51:33.201Z,13.00
2017-10-11T18:54:01.538Z,12.90
2017-10-11T18:56:29.156Z,12.90
2017-10-11T18:58:57.524Z,12.90
2017-10-11T19:01:25.112Z,12.90
2017-10-11T19:03:53.449Z,12.90
2017-10-11T19:06:21.037Z,12.90
2017-10-11T19:08:49.408Z,12.90
2017-10-11T19:11:17.059Z,12.90
2017-10-11T19:13:44.620Z,12.90
2017-10-11T19:16:12.184Z,12.90
2017-10-11T19:18:39.778Z,12.80
2017-10-11T19:21:08.104Z,12.80
2017-10-11T19:23:35.704Z,12.80
2017-10-11T19:26:04.040Z,12.70
2017-10-11T19:28:31.656Z,12.70
2017-10-11T19:30:59.225Z,12.70
2017-10-11T19:33:26.788Z,12.70
2017-10-11T19:35:54.373Z,12.70
2017-10-11T19:38:21.936Z,12.70
2017-10-11T19:40:49.524Z,12.70
2017-10-11T19:43:17.411Z,12.70
2017-10-11T19:45:45.788Z,12.70
2017-10-11T19:48:14.125Z,12.70
2017-10-11T19:50:43.820Z,12.70
2017-10-11T19:55:37.868Z,12.70
2017-10-11T19:58:06.200Z,12.60
2017-10-11T20:00:46.644Z,12.60
2017-10-11T20:03:14.204Z,12.60
2017-10-11T20:05:43.088Z,12.50
2017-10-11T20:08:10.716Z,12.50
2017-10-11T20:10:38.303Z,12.50
2017-10-11T20:13:06.640Z,12.40
2017-10-11T20:15:34.232Z,12.40
2017-10-11T20:18:02.563Z,12.40
2017-10-11T20:20:30.356Z,12.40
2017-10-11T20:22:57.924Z,12.40
2017-10-11T20:25:25.484Z,12.30
2017-10-11T20:27:53.468Z,12.30
2017-10-11T20:30:21.797Z,12.20
2017-10-11T20:32:49.392Z,12.20
2017-10-11T20:35:16.985Z,12.20
2017-10-11T20:37:44.548Z,12.20
2017-10-11T20:40:12.136Z,12.20
2017-10-11T20:42:39.696Z,12.10
2017-10-11T20:45:07.280Z,12.10
2017-10-11T20:47:34.961Z,12.10
2017-10-11T20:50:03.540Z,12.10
2017-10-11T20:52:31.112Z,12.10
2017-10-11T20:54:59.464Z,12.10
2017-10-11T20:57:27.053Z,12.10
2017-10-11T20:59:55.388Z,12.20
2017-10-11T21:02:22.988Z,12.20
2017-10-11T21:04:50.557Z,12.20
2017-10-11T21:07:18.908Z,12.10
2017-10-11T21:09:46.471Z,12.10
2017-10-11T21:12:14.081Z,12.10
2017-10-11T21:14:42.227Z,12.10
2017-10-11T21:17:10.599Z,12.10
2017-10-11T21:19:38.184Z,12.10
2017-10-11T21:22:06.536Z,12.20
2017-10-11T21:24:34.196Z,12.10
2017-10-11T21:27:01.763Z,12.10
2017-10-11T21:29:30.093Z,12.10
2017-10-11T21:31:57.693Z,12.10
2017-10-11T21:34:25.260Z,12.00
2017-10-11T21:36:53.032Z,12.00
2017-10-11T21:39:20.595Z,11.90
2017-10-11T21:41:48.156Z,11.80
2017-10-11T21:44:16.515Z,11.60
2017-10-11T21:46:44.088Z,11.60
2017-10-11T21:49:11.744Z,11.60
2017-10-11T21:51:39.308Z,11.50
2017-10-11T21:54:08.409Z,11.40
2017-10-11T21:56:35.972Z,11.40
2017-10-11T21:59:03.559Z,11.40
2017-10-11T22:01:31.124Z,11.40
2017-10-11T22:03:58.864Z,11.40
2017-10-11T22:06:27.228Z,11.50
2017-10-11T22:08:54.797Z,11.50
2017-10-11T22:11:22.380Z,11.50
2017-10-11T22:13:50.717Z,11.40
2017-10-11T22:16:18.313Z,11.40
2017-10-11T22:18:46.648Z,11.20
2017-10-11T22:21:14.231Z,11.20
2017-10-11T22:23:42.988Z,11.20
2017-10-11T22:26:10.581Z,11.20
2017-10-11T22:28:38.156Z,11.20
2017-10-11T22:31:06.508Z,11.20
2017-10-11T22:33:34.072Z,11.20
2017-10-11T22:36:02.421Z,11.30
2017-10-11T22:38:30.016Z,11.20
2017-10-11T22:40:57.576Z,11.30
2017-10-11T22:43:26.775Z,11.30
2017-10-11T22:45:54.444Z,11.30
2017-10-11T22:48:22.032Z,11.40
2017-10-11T22:50:50.356Z,11.50
2017-10-11T22:53:17.940Z,11.50
2017-10-11T22:55:45.604Z,11.50
2017-10-11T22:58:13.192Z,11.60
2017-10-11T23:00:42.274Z,11.70
2017-10-11T23:03:10.641Z,12.00
2017-10-11T23:05:38.199Z,12.00
2017-10-11T23:08:05.788Z,12.20
2017-10-11T23:10:34.120Z,12.30
2017-10-11T23:13:01.699Z,12.30
2017-10-11T23:15:29.364Z,12.50
2017-10-11T23:17:57.023Z,12.60
2017-10-11T23:20:24.872Z,12.60
2017-10-11T23:22:52.648Z,12.70
2017-10-11T23:25:20.209Z,12.70
2017-10-11T23:27:48.541Z,12.70
2017-10-11T23:30:16.125Z,12.70
2017-10-11T23:32:44.040Z,12.70
2017-10-11T23:35:12.397Z,12.60
2017-10-11T23:37:39.963Z,12.60
2017-10-11T23:40:07.548Z,12.60
2017-10-11T23:42:35.907Z,12.50
2017-10-11T23:45:03.513Z,12.50
2017-10-11T23:47:31.078Z,12.40
2017-10-11T23:49:58.646Z,12.30
2017-10-11T23:52:26.231Z,12.10
2017-10-11T23:54:53.792Z,12.00
2017-10-11T23:57:21.376Z,12.00
2017-10-11T23:59:48.945Z,11.90
